Time;durP1;ratioP1;P1;durP2;ratioP2;P2;SDS_P1;SDS_P2;PMS_P1;PMS_P2;Temp;Humidity;BMP_temperature;BMP_pressure;BME280_temperature;BME280_humidity;BME280_pressure;Samples;Min_cycle;Max_cycle;Signal;HPM_P1;HPM_P2
2023/10/01 00:00:09;;;;;;;8.95;6.47;;;;;;;;;;5055045;28;20063;-57
2023/10/01 00:02:37;;;;;;;9.60;6.88;;;;;;;;;;5054110;28;20021;-58
2023/10/01 00:05:04;;;;;;;8.80;6.03;;;;;;;;;;5054139;28;20446;-58
2023/10/01 00:07:30;;;;;;;10.35;6.32;;;;;;;;;;5053610;28;20025;-58
2023/10/01 00:09:56;;;;;;;9.45;5.43;;;;;;;;;;5054494;28;20032;-58
2023/10/01 00:12:23;;;;;;;12.23;6.50;;;;;;;;;;5053981;28;20036;-58
2023/10/01 00:14:49;;;;;;;9.85;6.63;;;;;;;;;;5053989;28;20025;-58
2023/10/01 00:17:15;;;;;;;10.57;7.20;;;;;;;;;;5054176;28;20032;-57
2023/10/01 00:19:41;;;;;;;12.13;7.50;;;;;;;;;;5054421;28;20066;-57
2023/10/01 00:22:07;;;;;;;9.57;7.25;;;;;;;;;;5054296;28;20029;-57
2023/10/01 00:24:33;;;;;;;10.57;7.05;;;;;;;;;;5054273;28;20025;-57
2023/10/01 00:27:01;;;;;;;9.20;6.38;;;;;;;;;;5053685;28;20035;-57
2023/10/01 00:29:27;;;;;;;12.57;5.78;;;;;;;;;;5054178;28;20029;-57
2023/10/01 00:31:53;;;;;;;9.73;7.13;;;;;;;;;;5053664;28;20025;-57
2023/10/01 00:34:19;;;;;;;8.60;6.07;;;;;;;;;;5053366;28;20500;-57
2023/10/01 00:36:45;;;;;;;11.70;6.93;;;;;;;;;;5054435;28;20037;-57
2023/10/01 00:39:12;;;;;;;7.72;5.97;;;;;;;;;;5054090;28;20509;-58
2023/10/01 00:41:38;;;;;;;11.48;6.32;;;;;;;;;;5053573;28;20074;-57
2023/10/01 00:44:04;;;;;;;8.85;6.22;;;;;;;;;;5054304;28;20033;-57
2023/10/01 00:46:31;;;;;;;10.63;6.70;;;;;;;;;;5053345;28;20029;-59
2023/10/01 00:49:00;;;;;;;8.50;5.93;;;;;;;;;;5053997;28;20119;-57
2023/10/01 00:51:26;;;;;;;9.65;6.57;;;;;;;;;;5053728;28;20028;-57
2023/10/01 00:53:52;;;;;;;9.18;6.70;;;;;;;;;;5053479;28;20093;-57
2023/10/01 00:56:22;;;;;;;11.38;7.22;;;;;;;;;;5053321;28;20072;-57
2023/10/01 00:58:48;;;;;;;8.65;6.05;;;;;;;;;;5053451;28;20025;-57
2023/10/01 01:01:16;;;;;;;9.43;6.40;;;;;;;;;;5053359;28;20033;-57
2023/10/01 01:03:43;;;;;;;10.60;7.60;;;;;;;;;;5053238;28;20395;-57
2023/10/01 01:06:23;;;;;;;8.98;6.68;;;;;;;;;;5053810;28;20425;-57
2023/10/01 01:08:52;;;;;;;11.70;6.65;;;;;;;;;;5057341;28;20120;-57
2023/10/01 01:11:19;;;;;;;9.20;6.47;;;;;;;;;;5057940;28;20029;-57
2023/10/01 01:13:45;;;;;;;7.78;6.25;;;;;;;;;;5057669;28;20182;-58
2023/10/01 01:16:12;;;;;;;9.98;6.03;;;;;;;;;;5056994;28;20040;-57
2023/10/01 01:18:38;;;;;;;8.20;6.63;;;;;;;;;;5057468;28;20029;-57
2023/10/01 01:21:10;;;;;;;11.77;6.22;;;;;;;;;;5057865;28;20033;-58
2023/10/01 01:23:37;;;;;;;9.73;6.32;;;;;;;;;;5057749;28;20036;-58
2023/10/01 01:26:03;;;;;;;9.10;6.97;;;;;;;;;;5057681;28;20021;-57
2023/10/01 01:28:32;;;;;;;8.80;6.18;;;;;;;;;;5056985;28;20036;-57
2023/10/01 01:30:59;;;;;;;8.75;6.10;;;;;;;;;;5057553;28;20075;-57
2023/10/01 01:34:12;;;;;;;12.00;5.85;;;;;;;;;;5057269;28;20056;-57
2023/10/01 01:36:17;;;;;;;8.75;6.43;;;;;;;;;;5056119;28;20099;-58
2023/10/01 01:39:12;;;;;;;10.88;6.57;;;;;;;;;;5056904;28;20025;-57
2023/10/01 01:41:48;;;;;;;11.50;6.35;;;;;;;;;;5054824;28;20510;-58
2023/10/01 01:44:14;;;;;;;8.82;6.28;;;;;;;;;;5056180;28;20056;-57
2023/10/01 01:46:59;;;;;;;8.80;6.40;;;;;;;;;;5056626;28;20036;-57
2023/10/01 01:49:25;;;;;;;14.98;7.72;;;;;;;;;;5056984;28;20091;-57
2023/10/01 01:51:59;;;;;;;9.00;7.25;;;;;;;;;;5056681;28;20033;-57
2023/10/01 01:54:26;;;;;;;9.73;6.40;;;;;;;;;;5056772;28;20033;-57
2023/10/01 01:56:52;;;;;;;7.95;6.38;;;;;;;;;;5056548;28;20060;-57
2023/10/01 01:59:21;;;;;;;9.77;6.93;;;;;;;;;;5056736;28;20409;-57
2023/10/01 02:01:47;;;;;;;9.88;7.20;;;;;;;;;;5057157;28;20514;-58
2023/10/01 02:04:13;;;;;;;10.30;6.57;;;;;;;;;;5056126;28;20025;-57
2023/10/01 02:06:42;;;;;;;9.60;7.30;;;;;;;;;;5056597;28;20112;-57
2023/10/01 02:09:12;;;;;;;11.10;6.57;;;;;;;;;;5056308;28;20044;-57
2023/10/01 02:11:38;;;;;;;9.40;5.78;;;;;;;;;;5056344;28;20029;-58
2023/10/01 02:14:05;;;;;;;9.38;6.65;;;;;;;;;;5056395;28;20090;-57
2023/10/01 02:16:37;;;;;;;12.00;6.85;;;;;;;;;;5056488;28;20533;-57
2023/10/01 02:21:43;;;;;;;11.32;6.28;;;;;;;;;;5056498;28;20029;-57
2023/10/01 02:24:23;;;;;;;9.88;6.97;;;;;;;;;;5055957;28;20467;-57
2023/10/01 02:26:53;;;;;;;8.93;7.05;;;;;;;;;;5056470;28;20061;-57
2023/10/01 02:29:22;;;;;;;7.78;6.63;;;;;;;;;;5056488;28;20029;-57
2023/10/01 02:31:54;;;;;;;11.00;6.72;;;;;;;;;;5055602;28;20399;-57
2023/10/01 02:34:21;;;;;;;10.98;6.95;;;;;;;;;;5056267;28;20025;-57
2023/10/01 02:36:47;;;;;;;9.63;6.68;;;;;;;;;;5056359;28;20029;-58
2023/10/01 02:39:28;;;;;;;8.63;6.55;;;;;;;;;;5056358;28;20029;-58
2023/10/01 02:44:34;;;;;;;10.35;7.38;;;;;;;;;;5056083;28;20364;-57
2023/10/01 02:47:09;;;;;;;9.27;7.82;;;;;;;;;;5055827;28;20090;-57
2023/10/01 02:49:35;;;;;;;9.43;7.10;;;;;;;;;;5056175;28;20044;-58
2023/10/01 02:52:04;;;;;;;8.43;6.82;;;;;;;;;;5055526;28;20151;-58
2023/10/01 02:54:37;;;;;;;10.32;6.15;;;;;;;;;;5055876;28;20028;-58
2023/10/01 02:57:12;;;;;;;9.15;6.78;;;;;;;;;;5056009;28;20033;-57
2023/10/01 03:02:32;;;;;;;8.93;6.60;;;;;;;;;;5055352;28;20036;-57
2023/10/01 03:05:05;;;;;;;9.85;7.07;;;;;;;;;;5055783;28;20082;-57
2023/10/01 03:07:36;;;;;;;10.18;6.78;;;;;;;;;;5055497;28;20154;-57
2023/10/01 03:10:11;;;;;;;10.98;6.85;;;;;;;;;;5055577;28;20489;-57
2023/10/01 03:12:40;;;;;;;8.35;7.07;;;;;;;;;;5055735;28;20160;-57
2023/10/01 03:17:39;;;;;;;9.40;6.97;;;;;;;;;;5055344;28;20032;-57
2023/10/01 03:21:07;;;;;;;10.15;7.68;;;;;;;;;;5055584;28;20025;-57
2023/10/01 03:23:02;;;;;;;8.82;7.07;;;;;;;;;;5055019;28;20039;-57
2023/10/01 03:25:40;;;;;;;10.13;7.00;;;;;;;;;;5054885;28;20025;-57
2023/10/01 03:28:07;;;;;;;10.27;7.38;;;;;;;;;;5054761;28;20071;-57
2023/10/01 03:30:33;;;;;;;8.55;6.53;;;;;;;;;;5054614;28;20037;-57
2023/10/01 03:33:08;;;;;;;17.80;10.20;;;;;;;;;;5054064;28;20053;-57
2023/10/01 03:35:34;;;;;;;9.90;7.45;;;;;;;;;;5054843;28;20530;-57
2023/10/01 03:38:10;;;;;;;11.32;8.65;;;;;;;;;;5054949;28;20036;-57
2023/10/01 03:43:31;;;;;;;10.98;6.95;;;;;;;;;;5054642;28;20051;-57
2023/10/01 03:46:06;;;;;;;7.72;6.68;;;;;;;;;;5054443;28;20474;-57
2023/10/01 03:48:57;;;;;;;9.30;6.80;;;;;;;;;;5054935;28;20082;-57
2023/10/01 03:51:28;;;;;;;9.57;7.82;;;;;;;;;;5054235;28;20032;-57
2023/10/01 03:53:58;;;;;;;12.77;7.13;;;;;;;;;;5054564;28;20039;-57
2023/10/01 03:56:29;;;;;;;9.80;7.70;;;;;;;;;;5055028;28;20028;-57
2023/10/01 03:58:55;;;;;;;9.52;7.45;;;;;;;;;;5054785;28;20036;-57
2023/10/01 04:01:26;;;;;;;10.65;7.43;;;;;;;;;;5054667;28;20363;-57
2023/10/01 04:03:52;;;;;;;8.43;6.68;;;;;;;;;;5054714;28;20032;-57
2023/10/01 04:06:21;;;;;;;14.02;6.88;;;;;;;;;;5053952;28;20375;-57
2023/10/01 04:08:47;;;;;;;12.10;6.93;;;;;;;;;;5054080;28;20044;-57
2023/10/01 04:11:16;;;;;;;10.98;6.82;;;;;;;;;;5054638;28;20112;-57
2023/10/01 04:13:42;;;;;;;9.65;7.18;;;;;;;;;;5054520;28;20025;-57
2023/10/01 04:16:08;;;;;;;10.13;6.55;;;;;;;;;;5054135;28;20028;-57
2023/10/01 04:18:36;;;;;;;8.55;6.50;;;;;;;;;;5054106;28;20041;-57
2023/10/01 04:23:33;;;;;;;12.60;6.40;;;;;;;;;;5053887;28;20478;-57
2023/10/01 04:26:06;;;;;;;9.40;6.82;;;;;;;;;;5053684;28;20021;-57
2023/10/01 04:28:36;;;;;;;12.75;7.88;;;;;;;;;;5053981;28;20033;-58
2023/10/01 04:31:09;;;;;;;10.85;7.95;;;;;;;;;;5054295;28;20410;-57
2023/10/01 04:33:42;;;;;;;12.05;7.15;;;;;;;;;;5053706;28;20096;-57
2023/10/01 04:36:10;;;;;;;13.45;7.35;;;;;;;;;;5053368;28;20489;-57
2023/10/01 04:38:41;;;;;;;8.77;7.05;;;;;;;;;;5053605;28;20029;-57
2023/10/01 04:41:07;;;;;;;13.43;6.90;;;;;;;;;;5053587;28;20025;-57
2023/10/01 04:43:41;;;;;;;9.57;7.68;;;;;;;;;;5052953;28;20036;-59
2023/10/01 04:46:11;;;;;;;8.90;6.13;;;;;;;;;;5053807;28;20059;-58
2023/10/01 04:48:40;;;;;;;10.68;7.20;;;;;;;;;;5053719;28;20033;-57
2023/10/01 04:51:07;;;;;;;9.98;6.93;;;;;;;;;;5053702;28;20029;-57
2023/10/01 04:53:34;;;;;;;9.50;6.53;;;;;;;;;;5053429;28;20029;-57
2023/10/01 04:56:00;;;;;;;10.02;6.93;;;;;;;;;;5054077;28;20028;-57
2023/10/01 04:58:27;;;;;;;11.15;7.30;;;;;;;;;;5054462;28;20040;-57
2023/10/01 05:00:54;;;;;;;12.93;7.78;;;;;;;;;;5053480;28;20450;-57
2023/10/01 05:03:36;;;;;;;8.60;6.72;;;;;;;;;;5053085;28;20615;-57
2023/10/01 05:06:02;;;;;;;11.35;6.38;;;;;;;;;;5053994;28;20029;-57
2023/10/01 05:08:38;;;;;;;13.13;6.43;;;;;;;;;;5053788;28;20116;-57
2023/10/01 05:11:04;;;;;;;15.18;7.15;;;;;;;;;;5054222;28;20262;-57
2023/10/01 05:13:31;;;;;;;10.43;7.35;;;;;;;;;;5053079;28;20429;-57
2023/10/01 05:15:57;;;;;;;12.43;7.97;;;;;;;;;;5053286;28;20052;-57
2023/10/01 05:18:26;;;;;;;7.90;6.15;;;;;;;;;;5053258;28;20515;-57
2023/10/01 05:20:58;;;;;;;8.88;6.38;;;;;;;;;;5053851;28;20029;-58
2023/10/01 05:23:24;;;;;;;8.80;6.68;;;;;;;;;;5054092;28;20037;-59
2023/10/01 05:25:50;;;;;;;11.43;6.88;;;;;;;;;;5053230;28;20071;-57
2023/10/01 05:28:31;;;;;;;8.98;6.53;;;;;;;;;;5053731;28;20033;-57
2023/10/01 05:31:05;;;;;;;10.32;6.93;;;;;;;;;;5054038;28;20040;-57
2023/10/01 05:33:33;;;;;;;7.28;6.32;;;;;;;;;;5053952;28;20029;-57
2023/10/01 05:36:03;;;;;;;7.55;6.47;;;;;;;;;;5053399;28;20371;-57
2023/10/01 05:38:33;;;;;;;;;;;;;;;;;;5054096;28;20116;-57
2023/10/01 05:41:03;;;;;;;10.75;6.50;;;;;;;;;;5053100;28;19904;-57
2023/10/01 05:43:35;;;;;;;8.35;5.97;;;;;;;;;;5053050;28;20029;-57
2023/10/01 05:46:01;;;;;;;7.38;5.05;;;;;;;;;;5053059;28;20033;-57
2023/10/01 05:48:27;;;;;;;14.80;7.20;;;;;;;;;;5052923;28;20095;-57
2023/10/01 05:50:57;;;;;;;7.78;6.47;;;;;;;;;;5053544;28;20024;-59
2023/10/01 05:53:23;;;;;;;7.75;6.22;;;;;;;;;;5053874;28;20037;-57
2023/10/01 05:55:49;;;;;;;8.90;6.70;;;;;;;;;;5056394;28;20021;-57
2023/10/01 05:58:21;;;;;;;8.55;7.00;;;;;;;;;;5056639;28;20025;-57
2023/10/01 06:00:56;;;;;;;10.02;6.45;;;;;;;;;;5056945;28;20155;-57
2023/10/01 06:03:26;;;;;;;8.68;6.97;;;;;;;;;;5056867;28;20021;-57
2023/10/01 06:06:10;;;;;;;10.52;6.70;;;;;;;;;;5056495;28;20071;-57
2023/10/01 06:08:45;;;;;;;11.07;6.93;;;;;;;;;;5057222;28;20029;-57
2023/10/01 06:11:15;;;;;;;8.35;6.85;;;;;;;;;;5056771;28;20028;-57
2023/10/01 06:13:56;;;;;;;10.23;7.35;;;;;;;;;;5056901;28;20032;-57
2023/10/01 06:16:25;;;;;;;;;;;;;;;;;;5057304;28;20037;-57
2023/10/01 06:18:58;;;;;;;9.65;7.65;;;;;;;;;;5056980;28;19911;-57
2023/10/01 06:21:26;;;;;;;10.48;7.68;;;;;;;;;;5056769;28;20031;-57
2023/10/01 06:23:52;;;;;;;10.90;7.93;;;;;;;;;;5056661;28;20024;-57
2023/10/01 06:26:39;;;;;;;10.45;7.20;;;;;;;;;;5056127;28;20470;-57
2023/10/01 06:29:07;;;;;;;9.82;7.05;;;;;;;;;;5056920;28;20044;-57
2023/10/01 06:31:47;;;;;;;9.70;7.07;;;;;;;;;;5056250;28;20024;-57
2023/10/01 06:34:13;;;;;;;9.18;6.28;;;;;;;;;;5056314;28;20040;-60
2023/10/01 06:36:40;;;;;;;8.73;6.25;;;;;;;;;;5056378;28;20055;-57
2023/10/01 06:39:06;;;;;;;9.50;6.85;;;;;;;;;;5056578;28;20021;-57
2023/10/01 06:41:32;;;;;;;7.47;5.78;;;;;;;;;;5055795;28;20052;-57
2023/10/01 06:44:01;;;;;;;7.50;5.82;;;;;;;;;;5055829;28;20025;-57
2023/10/01 06:46:27;;;;;;;8.15;6.45;;;;;;;;;;5056442;28;20032;-57
2023/10/01 06:48:56;;;;;;;10.88;7.68;;;;;;;;;;5055578;28;20021;-58
2023/10/01 06:51:24;;;;;;;8.75;6.65;;;;;;;;;;5055989;28;20021;-57
2023/10/01 06:53:58;;;;;;;9.82;6.65;;;;;;;;;;5055569;28;20029;-57
2023/10/01 06:56:24;;;;;;;9.63;6.72;;;;;;;;;;5055678;28;20033;-58
2023/10/01 07:01:35;;;;;;;8.63;7.00;;;;;;;;;;5055628;28;20036;-57
2023/10/01 07:04:05;;;;;;;9.93;6.03;;;;;;;;;;5055730;28;20070;-57
2023/10/01 07:06:36;;;;;;;8.75;6.97;;;;;;;;;;5054741;28;20029;-57
2023/10/01 07:09:03;;;;;;;10.20;7.05;;;;;;;;;;5055378;28;20411;-57
2023/10/01 07:11:29;;;;;;;8.27;5.72;;;;;;;;;;5055250;28;20060;-57
2023/10/01 07:13:56;;;;;;;12.35;7.60;;;;;;;;;;5055229;28;20024;-57
2023/10/01 07:16:44;;;;;;;8.77;6.30;;;;;;;;;;5055204;28;20040;-57
2023/10/01 07:19:11;;;;;;;7.35;6.53;;;;;;;;;;5055687;28;20057;-57
2023/10/01 07:21:37;;;;;;;9.68;6.55;;;;;;;;;;5055860;28;20061;-57
2023/10/01 07:24:04;;;;;;;11.77;7.32;;;;;;;;;;5055635;28;20040;-57
2023/10/01 07:26:30;;;;;;;8.18;6.50;;;;;;;;;;5054896;28;20064;-57
2023/10/01 07:28:56;;;;;;;10.13;6.88;;;;;;;;;;5054844;28;20052;-57
2023/10/01 07:31:25;;;;;;;8.98;6.60;;;;;;;;;;5055042;28;20063;-57
2023/10/01 07:33:54;;;;;;;12.80;6.68;;;;;;;;;;5054815;28;20025;-57
2023/10/01 07:36:23;;;;;;;9.15;6.00;;;;;;;;;;5054736;28;20041;-57
2023/10/01 07:38:52;;;;;;;10.70;6.68;;;;;;;;;;5055235;28;20119;-57
2023/10/01 07:41:20;;;;;;;9.82;7.25;;;;;;;;;;5055236;28;20052;-57
2023/10/01 07:43:46;;;;;;;8.93;6.22;;;;;;;;;;5054324;28;20043;-57
2023/10/01 07:46:15;;;;;;;9.90;7.35;;;;;;;;;;5054933;28;20025;-58
2023/10/01 07:48:47;;;;;;;10.60;6.28;;;;;;;;;;5054379;28;20029;-57
2023/10/01 07:51:28;;;;;;;11.35;8.15;;;;;;;;;;5055277;28;20029;-57
2023/10/01 07:53:57;;;;;;;8.68;5.70;;;;;;;;;;5054731;28;20474;-57
2023/10/01 07:56:23;;;;;;;10.25;6.95;;;;;;;;;;5054350;28;20106;-57
2023/10/01 08:01:37;;;;;;;14.50;7.28;;;;;;;;;;5054347;28;20036;-58
2023/10/01 08:04:08;;;;;;;9.55;5.95;;;;;;;;;;5054755;28;20029;-57
2023/10/01 08:06:43;;;;;;;10.20;7.32;;;;;;;;;;5054736;28;20049;-57
2023/10/01 08:09:13;;;;;;;10.00;6.25;;;;;;;;;;5054235;28;20074;-57
2023/10/01 08:14:26;;;;;;;9.43;6.25;;;;;;;;;;5054145;28;20040;-57
2023/10/01 08:16:59;;;;;;;7.70;5.78;;;;;;;;;;5053535;28;20439;-57
2023/10/01 08:19:41;;;;;;;10.77;7.20;;;;;;;;;;5054715;28;20096;-57
2023/10/01 08:22:13;;;;;;;9.23;6.68;;;;;;;;;;5054821;28;20069;-57
2023/10/01 08:24:39;;;;;;;8.63;6.07;;;;;;;;;;5054545;28;20052;-57
2023/10/01 08:27:12;;;;;;;7.57;5.97;;;;;;;;;;5054640;28;20125;-57
2023/10/01 08:32:23;;;;;;;11.90;7.28;;;;;;;;;;5054451;28;20117;-57
2023/10/01 08:35:01;;;;;;;10.32;6.28;;;;;;;;;;5053802;28;20076;-57
2023/10/01 08:37:31;;;;;;;7.30;5.57;;;;;;;;;;5054333;28;20112;-57
2023/10/01 08:40:00;;;;;;;8.25;6.15;;;;;;;;;;5053862;28;20410;-58
2023/10/01 08:42:30;;;;;;;9.82;6.38;;;;;;;;;;5054335;28;20409;-57
2023/10/01 08:45:03;;;;;;;9.45;6.03;;;;;;;;;;5053352;28;20463;-57
2023/10/01 08:49:57;;;;;;;10.00;6.72;;;;;;;;;;5053927;28;20036;-57
2023/10/01 08:52:27;;;;;;;7.95;6.15;;;;;;;;;;5053584;28;20021;-57
2023/10/01 08:54:54;;;;;;;9.93;6.18;;;;;;;;;;5053825;28;20471;-58
2023/10/01 08:57:38;;;;;;;9.35;6.22;;;;;;;;;;5053976;28;20037;-57
2023/10/01 09:00:17;;;;;;;8.75;5.55;;;;;;;;;;5053759;28;20352;-57
2023/10/01 09:02:43;;;;;;;9.93;6.32;;;;;;;;;;5054020;28;20471;-57
2023/10/01 09:05:11;;;;;;;7.07;5.15;;;;;;;;;;5053343;28;20021;-57
2023/10/01 09:07:41;;;;;;;6.15;4.80;;;;;;;;;;5054075;28;20033;-58
2023/10/01 09:10:08;;;;;;;6.85;5.80;;;;;;;;;;5053843;28;20040;-58
2023/10/01 09:12:34;;;;;;;8.95;6.43;;;;;;;;;;5053532;28;20032;-58
2023/10/01 09:15:04;;;;;;;8.88;5.88;;;;;;;;;;5053064;28;20478;-57
2023/10/01 09:17:40;;;;;;;7.65;5.80;;;;;;;;;;5053263;28;20072;-58
2023/10/01 09:20:09;;;;;;;9.02;5.80;;;;;;;;;;5053575;28;20124;-57
2023/10/01 09:22:42;;;;;;;5.10;4.30;;;;;;;;;;5054080;28;20128;-58
2023/10/01 09:25:15;;;;;;;7.07;5.70;;;;;;;;;;5053804;28;20151;-58
2023/10/01 09:30:58;;;;;;;10.50;6.18;;;;;;;;;;5057279;28;20079;-57
2023/10/01 09:33:24;;;;;;;7.07;5.32;;;;;;;;;;5057053;28;20124;-58
2023/10/01 09:35:56;;;;;;;7.07;5.85;;;;;;;;;;5056501;28;20144;-58
2023/10/01 09:38:27;;;;;;;8.82;5.50;;;;;;;;;;5057229;28;20074;-57
2023/10/01 09:40:54;;;;;;;8.18;5.40;;;;;;;;;;5057549;28;20021;-58
2023/10/01 09:43:34;;;;;;;7.38;4.90;;;;;;;;;;5057210;28;20022;-58
2023/10/01 09:46:06;;;;;;;11.02;5.28;;;;;;;;;;5056598;28;20029;-58
2023/10/01 09:48:36;;;;;;;9.20;5.90;;;;;;;;;;5057375;28;20041;-58
2023/10/01 09:51:08;;;;;;;;;;;;;;;;;;5057547;28;20100;-58
2023/10/01 09:53:43;;;;;;;7.78;5.38;;;;;;;;;;5056776;28;19999;-58
2023/10/01 09:56:12;;;;;;;8.88;4.63;;;;;;;;;;5057085;28;20055;-58
2023/10/01 09:58:46;;;;;;;9.05;5.13;;;;;;;;;;5056651;28;20152;-58
2023/10/01 10:01:12;;;;;;;6.53;4.97;;;;;;;;;;5057229;28;20466;-58
2023/10/01 10:03:38;;;;;;;7.45;5.25;;;;;;;;;;5056493;28;20017;-58
2023/10/01 10:06:09;;;;;;;7.28;4.82;;;;;;;;;;5056560;28;20025;-58
2023/10/01 10:08:35;;;;;;;8.40;5.30;;;;;;;;;;5056492;28;20028;-58
2023/10/01 10:11:02;;;;;;;6.65;4.90;;;;;;;;;;5056805;28;20112;-58
2023/10/01 10:13:36;;;;;;;8.02;4.95;;;;;;;;;;5056480;28;20104;-58
2023/10/01 10:16:28;;;;;;;8.15;5.57;;;;;;;;;;5056813;28;20071;-58
2023/10/01 10:19:23;;;;;;;9.55;5.47;;;;;;;;;;5055850;28;20040;-58
2023/10/01 10:24:34;;;;;;;5.82;4.78;;;;;;;;;;5056555;28;20120;-58
2023/10/01 10:27:15;;;;;;;8.80;5.60;;;;;;;;;;5056267;28;20029;-58
2023/10/01 10:29:56;;;;;;;7.68;5.28;;;;;;;;;;5056905;28;20025;-58
2023/10/01 10:32:26;;;;;;;7.57;5.40;;;;;;;;;;5056030;28;20024;-58
2023/10/01 10:35:05;;;;;;;8.32;5.30;;;;;;;;;;5055918;28;20482;-59
2023/10/01 10:37:37;;;;;;;9.07;4.78;;;;;;;;;;5055851;28;20029;-58
2023/10/01 10:40:13;;;;;;;6.50;4.72;;;;;;;;;;5055478;28;20021;-59
2023/10/01 10:42:39;;;;;;;8.25;5.78;;;;;;;;;;5056107;28;20401;-58
2023/10/01 10:45:20;;;;;;;7.53;5.07;;;;;;;;;;5055810;28;20021;-58
2023/10/01 10:48:04;;;;;;;11.75;4.97;;;;;;;;;;5056254;28;20117;-59
2023/10/01 10:50:49;;;;;;;8.75;5.53;;;;;;;;;;5055818;28;20112;-59
2023/10/01 10:53:19;;;;;;;7.43;5.05;;;;;;;;;;5055607;28;20036;-58
2023/10/01 10:55:45;;;;;;;;;;;;;;;;;;5056151;28;20017;-59
2023/10/01 10:58:12;;;;;;;10.43;5.18;;;;;;;;;;5055449;28;20342;-59
2023/10/01 11:00:41;;;;;;;7.07;4.82;;;;;;;;;;5055252;28;20021;-59
2023/10/01 11:03:11;;;;;;;9.82;5.55;;;;;;;;;;5055903;28;20051;-59
2023/10/01 11:05:49;;;;;;;12.55;5.88;;;;;;;;;;5055683;28;20021;-58
2023/10/01 11:08:27;;;;;;;6.80;4.15;;;;;;;;;;5055834;28;20047;-59
2023/10/01 11:10:54;;;;;;;9.48;5.38;;;;;;;;;;5056119;28;20021;-58
2023/10/01 11:13:45;;;;;;;8.50;5.18;;;;;;;;;;5055313;28;20029;-59
2023/10/01 11:16:16;;;;;;;10.75;5.50;;;;;;;;;;5054813;28;20079;-59
2023/10/01 11:18:44;;;;;;;8.98;4.30;;;;;;;;;;5055205;28;20068;-58
2023/10/01 11:21:13;;;;;;;10.23;5.75;;;;;;;;;;5055668;28;20049;-59
2023/10/01 11:23:39;;;;;;;9.82;4.75;;;;;;;;;;5054965;28;20111;-58
2023/10/01 11:26:06;;;;;;;7.78;4.72;;;;;;;;;;5055051;28;20017;-59
2023/10/01 11:28:41;;;;;;;10.05;4.95;;;;;;;;;;5054918;28;20052;-59
2023/10/01 11:31:31;;;;;;;10.98;4.90;;;;;;;;;;5055493;28;20032;-59
2023/10/01 11:33:59;;;;;;;9.52;5.75;;;;;;;;;;5054884;28;20033;-59
2023/10/01 11:36:35;;;;;;;9.98;4.97;;;;;;;;;;5055488;28;20128;-59
2023/10/01 11:39:03;;;;;;;7.18;5.32;;;;;;;;;;5054824;28;20032;-59
2023/10/01 11:41:38;;;;;;;8.82;4.40;;;;;;;;;;5054475;28;20025;-58
2023/10/01 11:44:06;;;;;;;9.85;5.35;;;;;;;;;;5054868;28;20025;-59
2023/10/01 11:46:39;;;;;;;8.38;4.88;;;;;;;;;;5055148;28;20032;-59
2023/10/01 11:49:11;;;;;;;8.82;5.22;;;;;;;;;;5054355;28;20029;-59
2023/10/01 11:51:45;;;;;;;10.60;5.65;;;;;;;;;;5054147;28;20494;-58
2023/10/01 11:54:12;;;;;;;7.50;5.47;;;;;;;;;;5054332;28;20024;-59
2023/10/01 11:56:40;;;;;;;9.00;5.10;;;;;;;;;;5054003;28;20490;-59
2023/10/01 11:59:08;;;;;;;9.70;5.07;;;;;;;;;;5053884;28;20039;-59
2023/10/01 12:01:46;;;;;;;8.07;5.18;;;;;;;;;;5054867;28;20033;-59
2023/10/01 12:04:16;;;;;;;7.30;5.13;;;;;;;;;;5054590;28;20028;-59
2023/10/01 12:06:48;;;;;;;9.02;4.55;;;;;;;;;;5054735;28;20459;-59
2023/10/01 12:09:14;;;;;;;8.13;5.10;;;;;;;;;;5054386;28;20071;-59
2023/10/01 12:11:40;;;;;;;6.80;4.38;;;;;;;;;;5053785;28;20490;-59
2023/10/01 12:14:08;;;;;;;11.70;4.47;;;;;;;;;;5053788;28;20475;-59
2023/10/01 12:16:35;;;;;;;9.63;5.40;;;;;;;;;;5054286;28;20467;-58
2023/10/01 12:22:06;;;;;;;8.30;4.30;;;;;;;;;;5053513;28;20083;-59
2023/10/01 12:24:39;;;;;;;8.70;4.95;;;;;;;;;;5053865;28;20020;-59
2023/10/01 12:27:07;;;;;;;7.32;4.65;;;;;;;;;;5054397;28;20450;-59
2023/10/01 12:29:42;;;;;;;7.28;4.50;;;;;;;;;;5054439;28;20036;-59
2023/10/01 12:32:08;;;;;;;7.50;4.97;;;;;;;;;;5054561;28;20346;-59
2023/10/01 12:34:34;;;;;;;8.13;5.10;;;;;;;;;;5053990;28;20418;-59
2023/10/01 12:37:07;;;;;;;7.25;4.68;;;;;;;;;;5054262;28;20036;-59
2023/10/01 12:39:34;;;;;;;7.18;4.65;;;;;;;;;;5053740;28;20119;-59
2023/10/01 12:42:04;;;;;;;11.40;5.85;;;;;;;;;;5054229;28;20031;-59
2023/10/01 12:44:32;;;;;;;8.90;4.38;;;;;;;;;;5053248;28;20051;-59
2023/10/01 12:47:02;;;;;;;7.43;4.68;;;;;;;;;;5053758;28;20036;-59
2023/10/01 12:49:31;;;;;;;9.65;5.85;;;;;;;;;;5053638;28;20495;-59
2023/10/01 12:51:57;;;;;;;8.60;5.70;;;;;;;;;;5053999;28;20037;-59
2023/10/01 12:54:27;;;;;;;9.05;4.93;;;;;;;;;;5053881;28;20031;-59
2023/10/01 12:57:06;;;;;;;11.00;5.15;;;;;;;;;;5053462;28;20059;-59
2023/10/01 12:59:39;;;;;;;8.02;4.47;;;;;;;;;;5053573;28;20033;-59
2023/10/01 13:02:21;;;;;;;10.27;5.03;;;;;;;;;;5053994;28;20028;-59
2023/10/01 13:04:49;;;;;;;6.40;4.47;;;;;;;;;;5053088;28;20025;-59
2023/10/01 13:07:20;;;;;;;6.93;4.43;;;;;;;;;;5053818;28;20041;-59
2023/10/01 13:09:53;;;;;;;7.30;4.65;;;;;;;;;;5053452;28;20471;-59
2023/10/01 13:12:24;;;;;;;6.18;4.53;;;;;;;;;;5053702;28;20108;-59
2023/10/01 13:15:14;;;;;;;6.78;3.88;;;;;;;;;;5054260;28;20029;-59
2023/10/01 13:17:48;;;;;;;11.10;4.97;;;;;;;;;;5053567;28;20352;-59
2023/10/01 13:20:28;;;;;;;7.20;4.25;;;;;;;;;;5053340;28;20040;-59
2023/10/01 13:23:07;;;;;;;8.80;4.68;;;;;;;;;;5053185;28;20075;-59
2023/10/01 13:25:34;;;;;;;7.80;4.70;;;;;;;;;;5053657;28;20039;-59
2023/10/01 13:28:06;;;;;;;6.85;4.38;;;;;;;;;;5053622;28;20414;-59
2023/10/01 13:31:03;;;;;;;8.45;4.43;;;;;;;;;;5053261;28;20018;-59
2023/10/01 13:33:19;;;;;;;7.13;4.38;;;;;;;;;;5052735;28;20463;-59
2023/10/01 13:35:58;;;;;;;6.30;3.88;;;;;;;;;;5053483;28;20049;-59
2023/10/01 13:38:37;;;;;;;10.25;4.18;;;;;;;;;;5053698;28;20087;-59
2023/10/01 14:11:08;;;;;;;10.75;4.80;;;;;;;;;;5053164;28;20032;-59
2023/10/01 14:13:35;;;;;;;5.80;3.63;;;;;;;;;;5052797;28;20028;-59
2023/10/01 14:16:23;;;;;;;9.25;5.10;;;;;;;;;;5054578;28;20402;-59
2023/10/01 14:21:35;;;;;;;6.18;3.70;;;;;;;;;;5056614;28;20386;-59
2023/10/01 14:26:50;;;;;;;8.43;4.63;;;;;;;;;;5056386;28;20052;-59
2023/10/01 14:29:22;;;;;;;8.95;5.13;;;;;;;;;;5056428;28;20025;-59
2023/10/01 14:31:51;;;;;;;8.30;4.88;;;;;;;;;;5056642;28;20347;-59
2023/10/01 14:34:18;;;;;;;6.40;4.23;;;;;;;;;;5055913;28;20029;-59
2023/10/01 14:36:44;;;;;;;5.03;3.75;;;;;;;;;;5056371;28;20047;-59
2023/10/01 14:39:12;;;;;;;8.38;5.05;;;;;;;;;;5055955;28;20100;-59
2023/10/01 14:41:41;;;;;;;6.68;4.30;;;;;;;;;;5056408;28;20029;-59
2023/10/01 14:44:08;;;;;;;6.30;3.67;;;;;;;;;;5056401;28;20036;-59
2023/10/01 14:46:34;;;;;;;8.48;4.65;;;;;;;;;;5055374;28;20033;-59
2023/10/01 14:49:06;;;;;;;8.35;5.15;;;;;;;;;;5055689;28;20029;-59
2023/10/01 14:51:48;;;;;;;7.20;4.88;;;;;;;;;;5056075;28;20096;-59
2023/10/01 14:54:16;;;;;;;7.55;4.97;;;;;;;;;;5055984;28;20049;-59
2023/10/01 14:56:43;;;;;;;7.28;4.25;;;;;;;;;;5055203;28;20451;-59
2023/10/01 14:59:13;;;;;;;7.22;3.80;;;;;;;;;;5055543;28;20124;-59
2023/10/01 15:01:40;;;;;;;6.20;3.72;;;;;;;;;;5055691;28;20493;-59
2023/10/01 15:04:22;;;;;;;6.78;4.28;;;;;;;;;;5055096;28;20490;-59
2023/10/01 15:06:57;;;;;;;7.13;4.32;;;;;;;;;;5055530;28;20017;-59
2023/10/01 15:09:33;;;;;;;5.90;3.65;;;;;;;;;;5055722;28;20112;-58
2023/10/01 15:12:00;;;;;;;9.88;4.72;;;;;;;;;;5055354;28;20067;-59
2023/10/01 15:14:26;;;;;;;5.90;4.18;;;;;;;;;;5055035;28;20016;-59
2023/10/01 15:16:56;;;;;;;7.97;4.57;;;;;;;;;;5054960;28;20488;-59
2023/10/01 15:19:25;;;;;;;7.77;4.27;;;;;;;;;;5055009;28;20093;-59
2023/10/01 15:21:52;;;;;;;7.20;4.07;;;;;;;;;;5055161;28;20370;-59
2023/10/01 15:24:20;;;;;;;6.40;4.50;;;;;;;;;;5055259;28;20024;-59
2023/10/01 15:26:46;;;;;;;6.72;3.35;;;;;;;;;;5054592;28;20051;-59
2023/10/01 15:29:12;;;;;;;6.75;3.92;;;;;;;;;;5055605;28;20029;-59
2023/10/01 15:31:39;;;;;;;8.65;4.32;;;;;;;;;;5054746;28;20063;-59
2023/10/01 15:34:21;;;;;;;7.65;3.90;;;;;;;;;;5054601;28;20043;-59
2023/10/01 15:36:48;;;;;;;5.90;3.80;;;;;;;;;;5055285;28;20156;-59
2023/10/01 15:39:27;;;;;;;7.70;4.32;;;;;;;;;;5054736;28;20114;-59
2023/10/01 15:42:08;;;;;;;8.13;4.03;;;;;;;;;;5054701;28;20025;-58
2023/10/01 15:44:43;;;;;;;7.18;4.18;;;;;;;;;;5055507;28;20020;-59
2023/10/01 15:47:09;;;;;;;5.75;4.00;;;;;;;;;;5055208;28;20029;-59
2023/10/01 15:49:39;;;;;;;6.90;4.00;;;;;;;;;;5055433;28;20115;-59
2023/10/01 15:52:10;;;;;;;7.57;4.60;;;;;;;;;;5054483;28;20072;-59
2023/10/01 15:54:36;;;;;;;6.10;3.92;;;;;;;;;;5054627;28;20025;-59
2023/10/01 15:57:04;;;;;;;7.45;4.45;;;;;;;;;;5054122;28;20075;-59
2023/10/01 15:59:30;;;;;;;8.65;5.35;;;;;;;;;;5054799;28;20052;-59
2023/10/01 16:01:59;;;;;;;6.78;4.15;;;;;;;;;;5054666;28;20025;-59
2023/10/01 16:04:25;;;;;;;9.07;5.43;;;;;;;;;;5054204;28;20052;-59
2023/10/01 16:07:03;;;;;;;6.30;3.80;;;;;;;;;;5054168;28;20065;-59
2023/10/01 16:09:39;;;;;;;8.82;4.85;;;;;;;;;;5054839;28;20045;-59
2023/10/01 16:12:07;;;;;;;6.25;4.43;;;;;;;;;;5054823;28;20403;-59
2023/10/01 16:14:34;;;;;;;6.30;3.92;;;;;;;;;;5054010;28;20021;-59